createdAt,value
2017-08-05T00:00:50.410Z,16.00
2017-08-05T00:03:18.842Z,16.00
2017-08-05T00:05:47.271Z,16.00
2017-08-05T00:08:15.703Z,16.00
2017-08-05T00:10:44.132Z,16.00
2017-08-05T00:13:12.569Z,15.90
2017-08-05T00:15:41.002Z,15.90
2017-08-05T00:18:09.429Z,16.00
2017-08-05T00:20:37.841Z,16.00
2017-08-05T00:23:06.962Z,16.00
2017-08-05T00:25:35.398Z,15.90
2017-08-05T00:28:03.815Z,15.90
2017-08-05T00:30:32.999Z,16.00
2017-08-05T00:33:02.208Z,16.00
2017-08-05T00:38:00.807Z,15.70
2017-08-05T00:40:30.016Z,15.60
2017-08-05T00:42:59.211Z,15.60
2017-08-05T00:45:28.406Z,15.60
2017-08-05T00:47:57.594Z,15.60
2017-08-05T00:50:26.791Z,15.70
2017-08-05T00:52:55.363Z,15.60
2017-08-05T00:55:23.782Z,15.70
2017-08-05T00:57:52.227Z,15.70
2017-08-05T01:00:20.643Z,15.70
2017-08-05T01:02:49.058Z,15.70
2017-08-05T01:05:17.620Z,15.50
2017-08-05T01:07:46.030Z,15.40
2017-08-05T01:10:14.471Z,15.50
2017-08-05T01:12:42.902Z,15.40
2017-08-05T01:15:11.327Z,15.50
2017-08-05T01:17:40.539Z,15.50
2017-08-05T01:20:09.635Z,15.50
2017-08-05T01:22:38.068Z,15.50
2017-08-05T01:25:07.199Z,15.60
2017-08-05T01:27:36.399Z,15.50
2017-08-05T01:30:05.585Z,15.40
2017-08-05T01:32:33.996Z,15.30
2017-08-05T01:35:02.423Z,15.20
2017-08-05T01:37:30.850Z,15.10
2017-08-05T01:39:59.262Z,15.10
2017-08-05T01:42:27.693Z,15.10
2017-08-05T01:44:56.923Z,15.20
2017-08-05T01:47:25.378Z,15.10
2017-08-05T01:49:54.583Z,15.10
2017-08-05T01:52:23.791Z,15.10
2017-08-05T01:54:52.215Z,15.10
2017-08-05T01:57:20.634Z,15.10
2017-08-05T01:59:49.072Z,15.00
2017-08-05T02:02:17.511Z,15.00
2017-08-05T02:04:46.699Z,15.10
2017-08-05T02:07:15.892Z,15.10
2017-08-05T02:09:44.323Z,15.10
2017-08-05T02:12:12.757Z,15.10
2017-08-05T02:14:41.972Z,15.20
2017-08-05T02:17:11.083Z,15.10
2017-08-05T02:19:39.646Z,15.10
2017-08-05T02:22:08.849Z,15.10
2017-08-05T02:24:38.054Z,15.10
2017-08-05T02:27:06.492Z,15.10
2017-08-05T02:29:34.916Z,15.10
2017-08-05T02:32:04.135Z,15.00
2017-08-05T02:34:32.575Z,15.00
2017-08-05T02:37:01.026Z,15.10
2017-08-05T02:39:34.985Z,15.10
2017-08-05T02:42:03.760Z,15.10
2017-08-05T02:44:32.872Z,15.00
2017-08-05T02:47:02.080Z,15.00
2017-08-05T02:49:30.588Z,14.90
2017-08-05T02:51:58.992Z,15.00
2017-08-05T02:54:27.426Z,15.00
2017-08-05T02:56:55.843Z,14.90
2017-08-05T02:59:24.259Z,14.90
2017-08-05T03:01:53.693Z,14.80
2017-08-05T03:04:22.795Z,14.80
2017-08-05T03:06:51.229Z,14.80
2017-08-05T03:09:19.646Z,14.70
2017-08-05T03:11:48.083Z,14.70
2017-08-05T03:14:16.499Z,14.70
2017-08-05T03:16:45.684Z,14.60
2017-08-05T03:19:14.118Z,14.50
2017-08-05T03:21:42.558Z,14.60
2017-08-05T03:24:11.752Z,14.60
2017-08-05T03:26:40.250Z,14.50
2017-08-05T03:29:09.431Z,14.70
2017-08-05T03:31:38.559Z,14.70
2017-08-05T03:34:06.983Z,14.80
2017-08-05T03:36:35.464Z,14.90
2017-08-05T03:39:03.554Z,14.90
2017-08-05T03:41:32.695Z,15.00
2017-08-05T03:44:01.121Z,15.10
2017-08-05T03:46:29.551Z,15.10
2017-08-05T03:48:57.990Z,15.10
2017-08-05T03:51:26.424Z,15.10
2017-08-05T03:53:56.316Z,15.10
2017-08-05T03:56:25.543Z,15.10
2017-08-05T03:58:53.988Z,15.10
2017-08-05T04:01:22.407Z,15.10
2017-08-05T04:03:50.843Z,15.10
2017-08-05T04:06:18.550Z,15.10
2017-08-05T04:08:47.079Z,15.20
2017-08-05T04:11:16.199Z,15.30
2017-08-05T04:13:45.395Z,15.50
2017-08-05T04:16:14.594Z,15.60
2017-08-05T04:18:43.807Z,15.60
2017-08-05T04:21:12.647Z,15.60
2017-08-05T04:23:41.078Z,15.60
2017-08-05T04:26:10.279Z,15.70
2017-08-05T04:28:39.463Z,15.70
2017-08-05T04:31:07.918Z,15.70
2017-08-05T04:33:36.371Z,15.80
2017-08-05T04:36:04.794Z,15.80
2017-08-05T04:38:33.212Z,15.90
2017-08-05T04:41:01.648Z,15.90
2017-08-05T04:43:30.078Z,16.00
2017-08-05T04:45:58.522Z,16.00
2017-08-05T04:48:26.934Z,16.10
2017-08-05T04:50:55.379Z,16.10
2017-08-05T04:53:24.502Z,16.10
2017-08-05T04:55:53.692Z,16.20
2017-08-05T04:58:22.890Z,16.20
2017-08-05T05:00:52.097Z,16.30
2017-08-05T05:03:21.310Z,16.30
2017-08-05T05:05:50.492Z,16.30
2017-08-05T05:08:19.684Z,16.40
2017-08-05T05:10:48.183Z,16.30
2017-08-05T05:13:17.387Z,16.60
2017-08-05T05:15:46.582Z,16.70
2017-08-05T05:18:15.775Z,16.80
2017-08-05T05:20:44.883Z,16.80
2017-08-05T05:23:14.061Z,17.00
2017-08-05T05:25:42.478Z,17.00
2017-08-05T05:28:10.915Z,17.10
2017-08-05T05:30:39.352Z,17.10
2017-08-05T05:33:09.230Z,17.30
2017-08-05T05:35:38.428Z,17.30
2017-08-05T05:38:07.534Z,17.30
2017-08-05T05:40:36.731Z,17.60
2017-08-05T05:43:05.919Z,17.80
2017-08-05T05:45:35.039Z,17.70
2017-08-05T05:48:03.472Z,17.90
2017-08-05T05:50:31.901Z,18.00
2017-08-05T05:53:00.314Z,18.10
2017-08-05T05:55:28.746Z,18.10
2017-08-05T05:57:57.994Z,18.20
2017-08-05T06:00:26.469Z,18.30
2017-08-05T06:02:54.917Z,18.30
2017-08-05T06:05:24.028Z,18.30
2017-08-05T06:07:52.456Z,18.40
2017-08-05T06:10:20.889Z,18.50
2017-08-05T06:12:50.092Z,18.40
2017-08-05T06:15:18.535Z,18.40
2017-08-05T06:17:47.648Z,18.40
2017-08-05T06:20:16.857Z,18.60
2017-08-05T06:22:45.771Z,18.50
2017-08-05T06:25:15.646Z,18.60
2017-08-05T06:27:44.080Z,18.60
2017-08-05T06:30:13.247Z,18.60
2017-08-05T06:32:41.707Z,18.80
2017-08-05T06:35:10.164Z,18.70
2017-08-05T06:37:38.582Z,18.70
2017-08-05T06:40:07.789Z,18.90
2017-08-05T06:42:36.976Z,19.00
2017-08-05T06:45:06.174Z,18.90
2017-08-05T06:47:35.366Z,18.80
2017-08-05T06:50:03.920Z,18.80
2017-08-05T06:52:32.351Z,18.80
2017-08-05T06:55:01.467Z,19.00
2017-08-05T06:57:29.904Z,19.20
2017-08-05T06:59:58.339Z,19.20
2017-08-05T07:02:26.902Z,19.30
2017-08-05T07:04:55.326Z,19.30
2017-08-05T07:07:23.791Z,19.40
2017-08-05T07:09:52.231Z,19.50
2017-08-05T07:12:21.407Z,19.70
2017-08-05T07:14:49.926Z,19.70
2017-08-05T07:17:18.355Z,19.80
2017-08-05T07:19:48.457Z,19.80
2017-08-05T07:22:16.880Z,19.70
2017-08-05T07:24:45.306Z,19.60
2017-08-05T07:27:13.759Z,19.70
2017-08-05T07:29:42.175Z,19.70
2017-08-05T07:32:10.641Z,19.90
2017-08-05T07:34:39.739Z,20.00
2017-08-05T07:37:08.175Z,20.20
2017-08-05T07:39:36.631Z,20.30
2017-08-05T07:42:05.106Z,20.40
2017-08-05T07:44:33.547Z,20.40
2017-08-05T07:47:02.787Z,20.50
2017-08-05T07:49:31.207Z,20.50
2017-08-05T07:51:59.622Z,20.70
2017-08-05T07:54:28.106Z,20.80
2017-08-05T07:56:56.827Z,20.90
2017-08-05T07:59:25.251Z,21.00
2017-08-05T08:01:53.774Z,21.00
2017-08-05T08:04:22.339Z,21.20
2017-08-05T08:06:51.443Z,21.20
2017-08-05T08:09:19.919Z,21.40
2017-08-05T08:11:49.127Z,21.50
2017-08-05T08:14:17.543Z,21.40
2017-08-05T08:16:45.975Z,21.50
2017-08-05T08:19:15.168Z,21.90
2017-08-05T08:21:44.371Z,21.80
2017-08-05T08:24:13.570Z,21.80
2017-08-05T08:26:42.762Z,21.80
2017-08-05T08:29:11.967Z,21.90
2017-08-05T08:31:41.164Z,21.90
2017-08-05T08:34:09.585Z,21.80
2017-08-05T08:36:38.039Z,21.90
2017-08-05T08:39:07.238Z,22.10
2017-08-05T08:41:35.687Z,22.10
2017-08-05T08:44:04.111Z,22.30
2017-08-05T08:46:32.559Z,22.40
2017-08-05T08:49:01.059Z,22.60
2017-08-05T08:51:30.263Z,22.70
2017-08-05T08:53:58.722Z,22.70
2017-08-05T08:56:27.268Z,22.70
2017-08-05T08:58:55.710Z,22.90
2017-08-05T09:01:24.187Z,22.90
2017-08-05T09:03:53.382Z,22.90
2017-08-05T09:06:22.588Z,23.20
2017-08-05T09:08:51.704Z,23.10
2017-08-05T09:11:20.203Z,23.70
2017-08-05T09:13:48.630Z,24.10
2017-08-05T09:16:17.080Z,24.30
2017-08-05T09:18:45.494Z,24.40
2017-08-05T09:21:13.736Z,24.40
2017-08-05T09:23:42.191Z,24.40
2017-08-05T09:26:10.618Z,24.50
2017-08-05T09:28:39.727Z,24.40
2017-08-05T09:31:08.199Z,24.40
2017-08-05T09:33:37.335Z,24.50
2017-08-05T09:36:05.831Z,24.70
2017-08-05T09:38:34.288Z,24.80
2017-08-05T09:41:03.429Z,24.90
2017-08-05T09:43:31.855Z,25.10
2017-08-05T09:46:00.273Z,25.10
2017-08-05T09:48:28.707Z,25.00
2017-08-05T09:50:57.220Z,24.90
2017-08-05T09:53:25.646Z,24.90
2017-08-05T09:55:54.071Z,24.90
2017-08-05T09:58:22.510Z,24.90
2017-08-05T10:00:50.898Z,24.90
2017-08-05T10:03:19.996Z,24.90
2017-08-05T10:05:48.535Z,24.90
2017-08-05T10:08:16.980Z,24.90
2017-08-05T10:10:45.457Z,24.90
2017-08-05T10:13:13.883Z,24.90
2017-08-05T10:15:42.327Z,24.90
2017-08-05T10:18:10.738Z,25.00
2017-08-05T10:20:39.166Z,25.10
2017-08-05T10:23:08.292Z,24.90
2017-08-05T10:25:36.825Z,24.90
2017-08-05T10:28:05.273Z,25.20
2017-08-05T10:30:33.687Z,25.40
2017-08-05T10:33:02.246Z,25.30
2017-08-05T10:35:30.690Z,25.40
2017-08-05T10:37:59.123Z,25.30
2017-08-05T10:40:27.563Z,25.00
2017-08-05T10:42:55.980Z,25.20
2017-08-05T10:45:24.430Z,25.60
2017-08-05T10:47:53.681Z,25.90
2017-08-05T10:50:22.164Z,25.80
2017-08-05T10:52:50.587Z,26.20
2017-08-05T10:55:19.002Z,26.20
2017-08-05T10:57:47.474Z,25.80
2017-08-05T11:00:16.705Z,26.30
2017-08-05T11:02:45.107Z,26.20
2017-08-05T11:05:14.347Z,27.10
2017-08-05T11:07:42.847Z,27.10
2017-08-05T11:10:11.266Z,27.30
2017-08-05T11:12:39.704Z,27.50
2017-08-05T11:15:08.247Z,27.70
2017-08-05T11:17:36.738Z,27.20
2017-08-05T11:20:05.172Z,27.00
2017-08-05T11:22:33.587Z,26.70
2017-08-05T11:25:02.027Z,26.90
2017-08-05T11:27:30.455Z,26.90
2017-08-05T11:29:58.890Z,26.90
2017-08-05T11:32:27.322Z,26.90
2017-08-05T11:34:55.736Z,26.90
2017-08-05T11:37:24.871Z,26.90
2017-08-05T11:39:53.142Z,26.80
2017-08-05T11:42:21.567Z,27.20
2017-08-05T11:44:50.127Z,27.10
2017-08-05T11:47:18.535Z,26.80
2017-08-05T11:49:47.008Z,26.50
2017-08-05T11:52:15.559Z,26.10
2017-08-05T11:54:44.628Z,25.80
2017-08-05T11:57:13.104Z,25.90
2017-08-05T11:59:41.542Z,26.30
2017-08-05T12:02:09.974Z,26.70
2017-08-05T12:04:38.403Z,26.90
2017-08-05T12:07:06.918Z,27.00
2017-08-05T12:09:36.113Z,27.20
2017-08-05T12:12:05.123Z,27.40
2017-08-05T12:14:33.571Z,27.40
2017-08-05T12:17:02.091Z,27.60
2017-08-05T12:19:31.202Z,27.90
2017-08-05T12:21:59.759Z,28.00
2017-08-05T12:24:28.974Z,27.70
2017-08-05T12:26:57.443Z,27.60
2017-08-05T12:29:26.683Z,27.80
2017-08-05T12:31:55.121Z,27.70
2017-08-05T12:34:23.566Z,28.00
2017-08-05T12:36:52.003Z,28.10
2017-08-05T12:39:20.448Z,27.80
2017-08-05T12:41:48.975Z,27.50
2017-08-05T12:44:17.403Z,27.80
2017-08-05T12:46:45.838Z,28.10
2017-08-05T12:49:14.297Z,28.20
2017-08-05T12:51:43.436Z,28.50
2017-08-05T12:54:11.860Z,28.80
2017-08-05T12:56:40.277Z,28.70
2017-08-05T12:59:08.700Z,28.60
2017-08-05T13:01:37.228Z,28.10
2017-08-05T13:04:05.663Z,27.80
2017-08-05T13:06:34.090Z,27.90
2017-08-05T13:09:02.530Z,28.10
2017-08-05T13:11:30.967Z,28.20
2017-08-05T13:13:59.392Z,28.10
2017-08-05T13:16:27.887Z,27.70
2017-08-05T13:18:56.444Z,27.50
2017-08-05T13:21:24.878Z,27.20
2017-08-05T13:23:54.175Z,26.50
2017-08-05T13:26:23.359Z,26.10
2017-08-05T13:28:52.550Z,25.70
2017-08-05T13:31:20.989Z,25.70
2017-08-05T13:33:50.502Z,24.60
2017-08-05T13:36:19.273Z,24.50
2017-08-05T13:38:48.374Z,23.90
2017-08-05T13:41:16.796Z,23.40
2017-08-05T13:43:45.316Z,23.00
2017-08-05T13:46:14.418Z,22.60
2017-08-05T13:48:42.877Z,22.50
2017-08-05T13:51:11.309Z,22.60
2017-08-05T13:53:39.788Z,23.30
2017-08-05T13:56:08.222Z,23.60
2017-08-05T13:58:37.442Z,23.60
2017-08-05T14:01:05.871Z,23.60
2017-08-05T14:03:34.978Z,23.80
2017-08-05T14:06:03.420Z,23.60
2017-08-05T14:08:31.862Z,23.60
2017-08-05T14:11:00.994Z,23.50
2017-08-05T14:13:29.240Z,23.60
2017-08-05T14:15:57.671Z,23.90
2017-08-05T14:18:26.127Z,24.70
2017-08-05T14:20:54.554Z,24.90
2017-08-05T14:23:23.099Z,25.20
2017-08-05T14:25:52.984Z,26.30
2017-08-05T14:28:21.422Z,26.20
2017-08-05T14:30:49.853Z,26.30
2017-08-05T14:33:19.054Z,26.20
2017-08-05T14:35:48.269Z,26.30
2017-08-05T14:38:16.708Z,26.30
2017-08-05T14:40:45.142Z,26.70
2017-08-05T14:43:13.558Z,26.60
2017-08-05T14:45:42.057Z,26.00
2017-08-05T14:48:10.479Z,25.80
2017-08-05T14:50:38.911Z,26.00
2017-08-05T14:53:07.356Z,26.30
2017-08-05T14:55:35.880Z,26.20
2017-08-05T14:58:05.007Z,25.70
2017-08-05T15:00:34.212Z,25.60
2017-08-05T15:03:03.318Z,25.50
2017-08-05T15:05:31.852Z,25.90
2017-08-05T15:08:00.267Z,26.20
2017-08-05T15:10:29.375Z,26.50
2017-08-05T15:12:57.819Z,27.10
2017-08-05T15:15:26.270Z,27.30
2017-08-05T15:17:55.381Z,27.60
2017-08-05T15:20:23.797Z,28.20
2017-08-05T15:22:53.110Z,28.40
2017-08-05T15:25:21.534Z,28.30
2017-08-05T15:27:49.970Z,28.60
2017-08-05T15:30:19.155Z,28.60
2017-08-05T15:32:48.351Z,27.30
2017-08-05T15:35:16.885Z,27.20
2017-08-05T15:37:45.298Z,27.00
2017-08-05T15:40:13.751Z,27.30
2017-08-05T15:42:42.167Z,27.60
2017-08-05T15:45:10.610Z,26.90
2017-08-05T15:47:39.048Z,26.50
2017-08-05T15:50:07.539Z,26.10
2017-08-05T15:52:36.761Z,26.20
2017-08-05T15:55:05.195Z,26.20
2017-08-05T15:57:33.626Z,26.50
2017-08-05T16:00:02.151Z,26.10
2017-08-05T16:02:30.771Z,26.40
2017-08-05T16:04:59.966Z,25.50
2017-08-05T16:07:29.158Z,25.10
2017-08-05T16:09:58.423Z,25.00
2017-08-05T16:12:26.960Z,24.90
2017-08-05T16:14:55.398Z,25.20
2017-08-05T16:17:23.830Z,25.70
2017-08-05T16:19:52.264Z,25.70
2017-08-05T16:22:20.704Z,25.10
2017-08-05T16:24:49.126Z,25.40
2017-08-05T16:27:17.576Z,25.40
2017-08-05T16:29:46.002Z,24.80
2017-08-05T16:32:14.503Z,24.60
2017-08-05T16:34:43.702Z,24.10
2017-08-05T16:37:13.119Z,24.00
2017-08-05T16:39:42.318Z,24.50
2017-08-05T16:42:10.750Z,24.40
2017-08-05T16:44:39.175Z,24.70
2017-08-05T16:47:07.654Z,24.10
2017-08-05T16:49:36.874Z,23.70
2017-08-05T16:52:05.308Z,23.60
2017-08-05T16:54:33.745Z,23.50
2017-08-05T16:57:03.626Z,23.20
2017-08-05T16:59:32.822Z,23.10
2017-08-05T17:02:02.027Z,23.30
2017-08-05T17:04:31.262Z,23.30
2017-08-05T17:06:59.678Z,23.20
2017-08-05T17:09:28.116Z,23.20
2017-08-05T17:11:56.538Z,23.40
2017-08-05T17:14:24.970Z,23.10
2017-08-05T17:16:53.434Z,23.10
2017-08-05T17:19:22.703Z,23.00
2017-08-05T17:21:51.327Z,22.90
2017-08-05T17:24:20.622Z,23.10
2017-08-05T17:26:49.837Z,22.90
2017-08-05T17:29:18.086Z,22.90
2017-08-05T17:31:47.281Z,22.80
2017-08-05T17:34:16.495Z,22.70
2017-08-05T17:36:45.678Z,22.80
2017-08-05T17:39:14.902Z,22.70
2017-08-05T17:41:44.089Z,22.60
2017-08-05T17:44:13.287Z,22.60
2017-08-05T17:46:42.504Z,22.40
2017-08-05T17:49:10.955Z,22.40
2017-08-05T17:51:39.391Z,22.30
2017-08-05T17:54:07.844Z,22.30
2017-08-05T17:56:37.074Z,22.20
2017-08-05T17:59:05.492Z,22.10
2017-08-05T18:01:33.937Z,22.10
2017-08-05T18:04:02.511Z,21.90
2017-08-05T18:06:30.944Z,21.80
2017-08-05T18:08:59.362Z,21.70
2017-08-05T18:11:27.823Z,21.60
2017-08-05T18:13:57.070Z,21.30
2017-08-05T18:16:25.492Z,21.30
2017-08-05T18:18:53.930Z,21.20
2017-08-05T18:21:22.443Z,21.00
2017-08-05T18:23:52.372Z,20.80
2017-08-05T18:26:20.950Z,20.80
2017-08-05T18:28:50.076Z,20.70
2017-08-05T18:31:19.263Z,20.70
2017-08-05T18:33:48.464Z,20.60
2017-08-05T18:36:16.896Z,20.50
2017-08-05T18:38:45.327Z,20.50
2017-08-05T18:43:44.331Z,20.00
2017-08-05T18:46:13.785Z,19.90
2017-08-05T18:48:43.288Z,19.90
2017-08-05T18:51:11.704Z,19.80
2017-08-05T18:53:40.159Z,19.80
2017-08-05T18:56:08.583Z,19.80
2017-08-05T18:58:37.050Z,19.80
2017-08-05T19:01:05.521Z,19.80
2017-08-05T19:03:33.941Z,19.80
2017-08-05T19:06:03.252Z,19.70
2017-08-05T19:08:32.482Z,19.70
2017-08-05T19:11:00.900Z,19.60
2017-08-05T19:13:29.355Z,19.60
2017-08-05T19:15:57.803Z,19.60
2017-08-05T19:18:26.266Z,19.60
2017-08-05T19:20:55.615Z,19.50
2017-08-05T19:23:24.763Z,19.40
2017-08-05T19:25:53.884Z,19.50
2017-08-05T19:28:22.328Z,19.50
2017-08-05T19:30:50.735Z,19.40
2017-08-05T19:33:19.870Z,19.40
2017-08-05T19:35:48.311Z,19.40
2017-08-05T19:38:16.744Z,19.30
2017-08-05T19:40:45.250Z,19.30
2017-08-05T19:43:13.683Z,19.30
2017-08-05T19:45:42.113Z,19.20
2017-08-05T19:48:10.547Z,19.20
2017-08-05T19:50:38.980Z,19.10
2017-08-05T19:53:07.428Z,19.10
2017-08-05T19:55:35.862Z,19.10
2017-08-05T19:58:04.303Z,18.90
2017-08-05T20:00:32.798Z,18.90
2017-08-05T20:03:02.028Z,18.90
2017-08-05T20:05:30.643Z,18.80
2017-08-05T20:07:59.096Z,18.80
2017-08-05T20:10:27.528Z,18.80
2017-08-05T20:12:55.980Z,18.80
2017-08-05T20:15:24.398Z,18.70
2017-08-05T20:17:52.834Z,18.70
2017-08-05T20:20:21.296Z,18.70
2017-08-05T20:22:49.710Z,18.70
2017-08-05T20:25:18.150Z,18.60
2017-08-05T20:27:46.582Z,18.60
2017-08-05T20:30:15.089Z,18.60
2017-08-05T20:32:43.514Z,18.50
2017-08-05T20:35:11.943Z,18.50
2017-08-05T20:37:40.364Z,18.30
2017-08-05T20:40:08.802Z,18.30
2017-08-05T20:42:37.395Z,18.30
2017-08-05T20:45:05.796Z,18.20
2017-08-05T20:47:34.263Z,18.20
2017-08-05T20:50:02.683Z,18.20
2017-08-05T20:52:31.162Z,18.00
2017-08-05T20:54:59.601Z,18.00
2017-08-05T20:57:28.711Z,17.90
2017-08-05T20:59:57.130Z,17.90
2017-08-05T21:02:25.543Z,17.80
2017-08-05T21:04:53.995Z,17.80
2017-08-05T21:07:22.432Z,17.80
2017-08-05T21:09:50.678Z,17.80
2017-08-05T21:12:19.116Z,17.70
2017-08-05T21:14:48.219Z,17.70
2017-08-05T21:17:17.471Z,17.80
2017-08-05T21:19:45.912Z,17.80
2017-08-05T21:22:15.111Z,17.60
2017-08-05T21:24:44.333Z,17.50
2017-08-05T21:27:12.791Z,17.40
2017-08-05T21:29:42.004Z,17.30
2017-08-05T21:32:10.447Z,17.30
2017-08-05T21:34:38.870Z,17.10
2017-08-05T21:37:07.314Z,17.00
2017-08-05T21:39:35.809Z,17.00
2017-08-05T21:42:04.931Z,16.90
2017-08-05T21:44:33.355Z,16.80
2017-08-05T21:47:01.785Z,16.70
2017-08-05T21:49:30.250Z,16.80
2017-08-05T21:51:59.455Z,16.80
2017-08-05T21:54:28.647Z,16.60
2017-08-05T21:56:57.091Z,16.60
2017-08-05T21:59:25.513Z,16.60
2017-08-05T22:01:54.855Z,16.40
2017-08-05T22:04:23.965Z,16.30
2017-08-05T22:06:52.415Z,16.40
2017-08-05T22:09:20.847Z,16.40
2017-08-05T22:11:49.314Z,16.30
2017-08-05T22:14:18.456Z,16.20
2017-08-05T22:16:47.646Z,16.10
2017-08-05T22:19:16.934Z,16.10
2017-08-05T22:21:45.379Z,16.10
2017-08-05T22:24:13.796Z,16.20
2017-08-05T22:26:42.224Z,16.20
2017-08-05T22:29:10.735Z,16.10
2017-08-05T22:31:39.151Z,16.00
2017-08-05T22:34:07.587Z,16.00
2017-08-05T22:36:36.130Z,15.90
2017-08-05T22:39:04.468Z,15.80
2017-08-05T22:41:32.916Z,15.80
2017-08-05T22:44:01.334Z,15.70
2017-08-05T22:46:29.775Z,15.70
2017-08-05T22:48:58.232Z,15.80
2017-08-05T22:51:27.439Z,15.80
2017-08-05T22:53:56.674Z,15.80
2017-08-05T22:56:25.138Z,15.80
2017-08-05T22:58:53.604Z,15.80
2017-08-05T23:01:22.814Z,15.90
2017-08-05T23:03:51.996Z,15.90
2017-08-05T23:06:21.221Z,15.90
2017-08-05T23:08:49.638Z,15.80
2017-08-05T23:11:18.059Z,15.80
2017-08-05T23:13:47.338Z,15.90
2017-08-05T23:16:15.798Z,15.90
2017-08-05T23:18:44.287Z,15.90
2017-08-05T23:21:12.716Z,15.90
2017-08-05T23:23:41.148Z,15.90
2017-08-05T23:26:09.583Z,15.90
2017-08-05T23:28:38.010Z,16.00
2017-08-05T23:31:06.449Z,16.10
2017-08-05T23:33:34.863Z,16.20
2017-08-05T23:36:03.982Z,16.10
2017-08-05T23:38:32.399Z,16.10
2017-08-05T23:41:01.597Z,16.10
2017-08-05T23:43:30.807Z,16.10
2017-08-05T23:45:59.258Z,16.00
2017-08-05T23:48:27.679Z,16.10
2017-08-05T23:50:56.109Z,16.10
2017-08-05T23:53:24.523Z,16.20
2017-08-05T23:55:52.964Z,16.20
2017-08-05T23:58:21.387Z,16.20
